sensor_id;sensor_type;location;lat;lon;timestamp;P1;durP1;ratioP1;P2;durP2;ratioP2
10303;SDS011;5197;48.152;8.590;2024-01-27T00:00:31;5.63;;;2.70;;
10303;SDS011;5197;48.152;8.590;2024-01-27T00:02:58;5.93;;;3.13;;
10303;SDS011;5197;48.152;8.590;2024-01-27T00:05:26;5.70;;;2.90;;
10303;SDS011;5197;48.152;8.590;2024-01-27T00:07:56;4.73;;;2.47;;
10303;SDS011;5197;48.152;8.590;2024-01-27T00:10:23;3.00;;;2.70;;
10303;SDS011;5197;48.152;8.590;2024-01-27T00:12:51;4.40;;;2.57;;
10303;SDS011;5197;48.152;8.590;2024-01-27T00:15:18;4.80;;;2.60;;
10303;SDS011;5197;48.152;8.590;2024-01-27T00:17:45;4.97;;;2.97;;
10303;SDS011;5197;48.152;8.590;2024-01-27T00:20:12;5.90;;;3.00;;
10303;SDS011;5197;48.152;8.590;2024-01-27T00:22:40;8.27;;;3.00;;
10303;SDS011;5197;48.152;8.590;2024-01-27T00:25:07;4.53;;;2.80;;
10303;SDS011;5197;48.152;8.590;2024-01-27T00:27:34;5.80;;;2.90;;
10303;SDS011;5197;48.152;8.590;2024-01-27T00:30:01;3.53;;;2.60;;
10303;SDS011;5197;48.152;8.590;2024-01-27T00:32:28;5.17;;;3.30;;
10303;SDS011;5197;48.152;8.590;2024-01-27T00:34:55;6.83;;;3.13;;
10303;SDS011;5197;48.152;8.590;2024-01-27T00:37:22;10.83;;;3.67;;
10303;SDS011;5197;48.152;8.590;2024-01-27T00:39:49;8.07;;;4.20;;
10303;SDS011;5197;48.152;8.590;2024-01-27T00:42:16;6.97;;;4.03;;
10303;SDS011;5197;48.152;8.590;2024-01-27T00:44:45;5.70;;;3.90;;
10303;SDS011;5197;48.152;8.590;2024-01-27T00:47:12;7.30;;;3.80;;
10303;SDS011;5197;48.152;8.590;2024-01-27T00:49:39;4.00;;;3.63;;
10303;SDS011;5197;48.152;8.590;2024-01-27T00:52:06;6.23;;;3.67;;
10303;SDS011;5197;48.152;8.590;2024-01-27T00:54:33;7.97;;;4.40;;
10303;SDS011;5197;48.152;8.590;2024-01-27T00:57:00;6.47;;;4.50;;
10303;SDS011;5197;48.152;8.590;2024-01-27T00:59:28;5.40;;;4.03;;
10303;SDS011;5197;48.152;8.590;2024-01-27T01:01:55;9.40;;;4.73;;
10303;SDS011;5197;48.152;8.590;2024-01-27T01:04:22;6.70;;;4.30;;
10303;SDS011;5197;48.152;8.590;2024-01-27T01:06:49;5.80;;;4.00;;
10303;SDS011;5197;48.152;8.590;2024-01-27T01:09:16;6.43;;;4.30;;
10303;SDS011;5197;48.152;8.590;2024-01-27T01:11:43;5.00;;;4.40;;
10303;SDS011;5197;48.152;8.590;2024-01-27T01:14:10;6.00;;;4.13;;
10303;SDS011;5197;48.152;8.590;2024-01-27T01:16:38;8.30;;;4.80;;
10303;SDS011;5197;48.152;8.590;2024-01-27T01:19:05;7.00;;;3.80;;
10303;SDS011;5197;48.152;8.590;2024-01-27T01:21:32;11.77;;;5.00;;
10303;SDS011;5197;48.152;8.590;2024-01-27T01:23:59;9.57;;;4.63;;
10303;SDS011;5197;48.152;8.590;2024-01-27T01:26:26;6.10;;;4.60;;
10303;SDS011;5197;48.152;8.590;2024-01-27T01:28:53;5.63;;;4.27;;
10303;SDS011;5197;48.152;8.590;2024-01-27T01:31:20;8.33;;;4.53;;
10303;SDS011;5197;48.152;8.590;2024-01-27T01:33:47;8.63;;;4.00;;
10303;SDS011;5197;48.152;8.590;2024-01-27T01:36:15;6.27;;;4.27;;
10303;SDS011;5197;48.152;8.590;2024-01-27T01:38:42;8.53;;;4.07;;
10303;SDS011;5197;48.152;8.590;2024-01-27T01:41:09;6.87;;;3.97;;
10303;SDS011;5197;48.152;8.590;2024-01-27T01:43:36;4.67;;;4.07;;
10303;SDS011;5197;48.152;8.590;2024-01-27T01:46:03;10.90;;;4.40;;
10303;SDS011;5197;48.152;8.590;2024-01-27T01:48:31;5.60;;;4.27;;
10303;SDS011;5197;48.152;8.590;2024-01-27T01:50:59;7.07;;;4.23;;
10303;SDS011;5197;48.152;8.590;2024-01-27T01:53:27;9.97;;;4.13;;
10303;SDS011;5197;48.152;8.590;2024-01-27T01:55:54;10.20;;;4.07;;
10303;SDS011;5197;48.152;8.590;2024-01-27T01:58:22;6.57;;;4.10;;
10303;SDS011;5197;48.152;8.590;2024-01-27T02:00:49;8.33;;;4.50;;
10303;SDS011;5197;48.152;8.590;2024-01-27T02:03:16;6.47;;;4.20;;
10303;SDS011;5197;48.152;8.590;2024-01-27T02:05:43;10.60;;;5.03;;
10303;SDS011;5197;48.152;8.590;2024-01-27T02:08:10;6.97;;;4.83;;
10303;SDS011;5197;48.152;8.590;2024-01-27T02:10:37;8.53;;;4.93;;
10303;SDS011;5197;48.152;8.590;2024-01-27T02:13:18;7.67;;;5.03;;
10303;SDS011;5197;48.152;8.590;2024-01-27T02:15:49;7.63;;;4.20;;
10303;SDS011;5197;48.152;8.590;2024-01-27T02:18:17;9.53;;;4.03;;
10303;SDS011;5197;48.152;8.590;2024-01-27T02:20:45;6.57;;;4.20;;
10303;SDS011;5197;48.152;8.590;2024-01-27T02:23:12;5.43;;;4.00;;
10303;SDS011;5197;48.152;8.590;2024-01-27T02:25:43;7.97;;;4.20;;
10303;SDS011;5197;48.152;8.590;2024-01-27T02:28:10;9.33;;;4.20;;
10303;SDS011;5197;48.152;8.590;2024-01-27T02:30:39;11.07;;;4.10;;
10303;SDS011;5197;48.152;8.590;2024-01-27T02:33:06;6.33;;;4.40;;
10303;SDS011;5197;48.152;8.590;2024-01-27T02:35:34;8.97;;;4.37;;
10303;SDS011;5197;48.152;8.590;2024-01-27T02:38:01;5.73;;;4.40;;
10303;SDS011;5197;48.152;8.590;2024-01-27T02:40:28;7.37;;;4.67;;
10303;SDS011;5197;48.152;8.590;2024-01-27T02:42:55;6.87;;;4.57;;
10303;SDS011;5197;48.152;8.590;2024-01-27T02:45:22;7.10;;;4.53;;
10303;SDS011;5197;48.152;8.590;2024-01-27T02:47:49;9.33;;;4.57;;
10303;SDS011;5197;48.152;8.590;2024-01-27T02:50:16;11.13;;;4.87;;
10303;SDS011;5197;48.152;8.590;2024-01-27T02:52:44;7.20;;;4.80;;
10303;SDS011;5197;48.152;8.590;2024-01-27T02:55:11;7.97;;;4.73;;
10303;SDS011;5197;48.152;8.590;2024-01-27T02:57:38;10.33;;;4.80;;
10303;SDS011;5197;48.152;8.590;2024-01-27T03:00:07;9.03;;;4.93;;
10303;SDS011;5197;48.152;8.590;2024-01-27T03:02:34;9.33;;;5.47;;
10303;SDS011;5197;48.152;8.590;2024-01-27T03:05:01;8.03;;;4.70;;
10303;SDS011;5197;48.152;8.590;2024-01-27T03:07:29;7.87;;;5.10;;
10303;SDS011;5197;48.152;8.590;2024-01-27T03:09:56;11.07;;;5.20;;
10303;SDS011;5197;48.152;8.590;2024-01-27T03:12:22;8.07;;;4.37;;
10303;SDS011;5197;48.152;8.590;2024-01-27T03:14:50;5.80;;;4.37;;
10303;SDS011;5197;48.152;8.590;2024-01-27T03:17:17;7.77;;;4.37;;
10303;SDS011;5197;48.152;8.590;2024-01-27T03:19:44;7.53;;;4.57;;
10303;SDS011;5197;48.152;8.590;2024-01-27T03:22:15;9.07;;;4.33;;
10303;SDS011;5197;48.152;8.590;2024-01-27T03:24:42;5.27;;;4.10;;
10303;SDS011;5197;48.152;8.590;2024-01-27T03:27:09;7.17;;;4.83;;
10303;SDS011;5197;48.152;8.590;2024-01-27T03:29:36;13.60;;;4.60;;
10303;SDS011;5197;48.152;8.590;2024-01-27T03:32:04;10.80;;;4.13;;
10303;SDS011;5197;48.152;8.590;2024-01-27T03:34:32;7.07;;;4.47;;
10303;SDS011;5197;48.152;8.590;2024-01-27T03:36:59;7.33;;;4.30;;
10303;SDS011;5197;48.152;8.590;2024-01-27T03:39:26;7.83;;;4.70;;
10303;SDS011;5197;48.152;8.590;2024-01-27T03:41:53;8.63;;;4.87;;
10303;SDS011;5197;48.152;8.590;2024-01-27T03:44:20;10.27;;;5.57;;
10303;SDS011;5197;48.152;8.590;2024-01-27T03:46:47;6.37;;;5.00;;
10303;SDS011;5197;48.152;8.590;2024-01-27T03:49:14;7.00;;;5.00;;
10303;SDS011;5197;48.152;8.590;2024-01-27T03:51:42;10.27;;;4.87;;
10303;SDS011;5197;48.152;8.590;2024-01-27T03:54:09;8.07;;;4.90;;
10303;SDS011;5197;48.152;8.590;2024-01-27T03:56:36;11.33;;;5.30;;
10303;SDS011;5197;48.152;8.590;2024-01-27T03:59:03;10.63;;;5.30;;
10303;SDS011;5197;48.152;8.590;2024-01-27T04:01:32;6.97;;;4.93;;
10303;SDS011;5197;48.152;8.590;2024-01-27T04:03:59;5.40;;;4.30;;
10303;SDS011;5197;48.152;8.590;2024-01-27T04:06:26;6.57;;;4.13;;
10303;SDS011;5197;48.152;8.590;2024-01-27T04:08:53;9.20;;;5.03;;
10303;SDS011;5197;48.152;8.590;2024-01-27T04:11:23;6.60;;;4.47;;
10303;SDS011;5197;48.152;8.590;2024-01-27T04:13:50;4.90;;;4.43;;
10303;SDS011;5197;48.152;8.590;2024-01-27T04:16:17;7.97;;;4.70;;
10303;SDS011;5197;48.152;8.590;2024-01-27T04:18:44;6.07;;;4.70;;
10303;SDS011;5197;48.152;8.590;2024-01-27T04:21:13;5.37;;;4.20;;
10303;SDS011;5197;48.152;8.590;2024-01-27T04:23:40;10.30;;;4.77;;
10303;SDS011;5197;48.152;8.590;2024-01-27T04:26:07;7.20;;;4.60;;
10303;SDS011;5197;48.152;8.590;2024-01-27T04:28:35;11.97;;;4.67;;
10303;SDS011;5197;48.152;8.590;2024-01-27T04:31:03;10.90;;;4.53;;
10303;SDS011;5197;48.152;8.590;2024-01-27T04:33:31;7.73;;;4.90;;
10303;SDS011;5197;48.152;8.590;2024-01-27T04:35:58;8.83;;;4.23;;
10303;SDS011;5197;48.152;8.590;2024-01-27T04:38:26;12.03;;;4.90;;
10303;SDS011;5197;48.152;8.590;2024-01-27T04:40:53;6.40;;;4.60;;
10303;SDS011;5197;48.152;8.590;2024-01-27T04:43:20;7.63;;;4.97;;
10303;SDS011;5197;48.152;8.590;2024-01-27T04:45:47;7.50;;;4.97;;
10303;SDS011;5197;48.152;8.590;2024-01-27T04:48:15;8.90;;;4.70;;
10303;SDS011;5197;48.152;8.590;2024-01-27T04:50:43;9.70;;;4.53;;
10303;SDS011;5197;48.152;8.590;2024-01-27T04:53:10;6.87;;;5.20;;
10303;SDS011;5197;48.152;8.590;2024-01-27T04:55:37;9.43;;;5.00;;
10303;SDS011;5197;48.152;8.590;2024-01-27T04:58:06;8.43;;;5.60;;
10303;SDS011;5197;48.152;8.590;2024-01-27T05:00:33;11.50;;;5.90;;
10303;SDS011;5197;48.152;8.590;2024-01-27T05:03:01;14.60;;;5.70;;
10303;SDS011;5197;48.152;8.590;2024-01-27T05:05:31;11.33;;;5.30;;
10303;SDS011;5197;48.152;8.590;2024-01-27T05:08:02;10.57;;;5.43;;
10303;SDS011;5197;48.152;8.590;2024-01-27T05:10:29;6.33;;;5.33;;
10303;SDS011;5197;48.152;8.590;2024-01-27T05:12:56;7.87;;;5.03;;
10303;SDS011;5197;48.152;8.590;2024-01-27T05:15:23;9.83;;;5.53;;
10303;SDS011;5197;48.152;8.590;2024-01-27T05:17:51;9.67;;;5.27;;
10303;SDS011;5197;48.152;8.590;2024-01-27T05:20:18;8.20;;;5.77;;
10303;SDS011;5197;48.152;8.590;2024-01-27T05:22:45;9.27;;;5.97;;
10303;SDS011;5197;48.152;8.590;2024-01-27T05:25:13;15.83;;;6.37;;
10303;SDS011;5197;48.152;8.590;2024-01-27T05:27:40;10.60;;;6.47;;
10303;SDS011;5197;48.152;8.590;2024-01-27T05:30:07;12.07;;;6.47;;
10303;SDS011;5197;48.152;8.590;2024-01-27T05:32:35;13.47;;;6.87;;
10303;SDS011;5197;48.152;8.590;2024-01-27T05:35:02;9.30;;;6.23;;
10303;SDS011;5197;48.152;8.590;2024-01-27T05:37:31;78.20;;;8.37;;
10303;SDS011;5197;48.152;8.590;2024-01-27T05:39:59;47.00;;;7.40;;
10303;SDS011;5197;48.152;8.590;2024-01-27T05:42:26;70.30;;;7.83;;
10303;SDS011;5197;48.152;8.590;2024-01-27T05:44:53;93.73;;;8.13;;
10303;SDS011;5197;48.152;8.590;2024-01-27T05:47:20;49.40;;;6.50;;
10303;SDS011;5197;48.152;8.590;2024-01-27T05:49:47;25.00;;;6.67;;
10303;SDS011;5197;48.152;8.590;2024-01-27T05:52:15;55.30;;;6.77;;
10303;SDS011;5197;48.152;8.590;2024-01-27T05:54:51;29.83;;;6.70;;
10303;SDS011;5197;48.152;8.590;2024-01-27T05:57:18;87.30;;;8.13;;
10303;SDS011;5197;48.152;8.590;2024-01-27T05:59:46;96.70;;;9.37;;
10303;SDS011;5197;48.152;8.590;2024-01-27T06:02:13;111.63;;;7.93;;
10303;SDS011;5197;48.152;8.590;2024-01-27T06:04:40;70.10;;;6.93;;
10303;SDS011;5197;48.152;8.590;2024-01-27T06:07:08;67.77;;;6.57;;
10303;SDS011;5197;48.152;8.590;2024-01-27T06:09:37;84.20;;;6.53;;
10303;SDS011;5197;48.152;8.590;2024-01-27T06:12:04;38.23;;;6.73;;
10303;SDS011;5197;48.152;8.590;2024-01-27T06:14:32;25.77;;;5.97;;
10303;SDS011;5197;48.152;8.590;2024-01-27T06:16:59;39.30;;;5.27;;
10303;SDS011;5197;48.152;8.590;2024-01-27T06:19:27;86.77;;;7.33;;
10303;SDS011;5197;48.152;8.590;2024-01-27T06:21:54;48.13;;;5.53;;
10303;SDS011;5197;48.152;8.590;2024-01-27T06:24:21;68.00;;;7.20;;
10303;SDS011;5197;48.152;8.590;2024-01-27T06:26:49;49.27;;;8.03;;
10303;SDS011;5197;48.152;8.590;2024-01-27T06:29:16;31.23;;;6.23;;
10303;SDS011;5197;48.152;8.590;2024-01-27T06:31:44;54.10;;;8.40;;
10303;SDS011;5197;48.152;8.590;2024-01-27T06:34:11;9.63;;;6.80;;
10303;SDS011;5197;48.152;8.590;2024-01-27T06:36:39;8.60;;;6.33;;
10303;SDS011;5197;48.152;8.590;2024-01-27T06:39:07;13.43;;;7.93;;
10303;SDS011;5197;48.152;8.590;2024-01-27T06:41:34;15.67;;;9.50;;
10303;SDS011;5197;48.152;8.590;2024-01-27T06:44:01;16.80;;;8.97;;
10303;SDS011;5197;48.152;8.590;2024-01-27T06:46:29;22.80;;;9.47;;
10303;SDS011;5197;48.152;8.590;2024-01-27T06:48:56;15.43;;;8.33;;
10303;SDS011;5197;48.152;8.590;2024-01-27T06:51:24;12.17;;;7.93;;
10303;SDS011;5197;48.152;8.590;2024-01-27T06:53:51;16.37;;;7.90;;
10303;SDS011;5197;48.152;8.590;2024-01-27T06:56:18;14.97;;;8.00;;
10303;SDS011;5197;48.152;8.590;2024-01-27T06:58:45;19.87;;;8.37;;
10303;SDS011;5197;48.152;8.590;2024-01-27T07:01:12;14.00;;;8.87;;
10303;SDS011;5197;48.152;8.590;2024-01-27T07:03:39;15.00;;;8.37;;
10303;SDS011;5197;48.152;8.590;2024-01-27T07:06:08;14.50;;;8.10;;
10303;SDS011;5197;48.152;8.590;2024-01-27T07:08:35;19.67;;;8.27;;
10303;SDS011;5197;48.152;8.590;2024-01-27T07:11:04;98.60;;;11.33;;
10303;SDS011;5197;48.152;8.590;2024-01-27T07:13:31;42.10;;;8.03;;
10303;SDS011;5197;48.152;8.590;2024-01-27T07:15:59;43.50;;;8.87;;
10303;SDS011;5197;48.152;8.590;2024-01-27T07:18:26;44.90;;;8.80;;
10303;SDS011;5197;48.152;8.590;2024-01-27T07:20:53;94.67;;;10.07;;
10303;SDS011;5197;48.152;8.590;2024-01-27T07:23:21;145.60;;;10.47;;
10303;SDS011;5197;48.152;8.590;2024-01-27T07:25:48;81.90;;;8.73;;
10303;SDS011;5197;48.152;8.590;2024-01-27T07:28:15;114.47;;;10.73;;
10303;SDS011;5197;48.152;8.590;2024-01-27T07:30:45;66.87;;;7.10;;
10303;SDS011;5197;48.152;8.590;2024-01-27T07:33:12;158.80;;;9.93;;
10303;SDS011;5197;48.152;8.590;2024-01-27T07:35:40;62.97;;;6.23;;
10303;SDS011;5197;48.152;8.590;2024-01-27T07:38:07;108.23;;;7.30;;
10303;SDS011;5197;48.152;8.590;2024-01-27T07:40:35;53.83;;;5.80;;
10303;SDS011;5197;48.152;8.590;2024-01-27T07:43:02;90.73;;;7.90;;
10303;SDS011;5197;48.152;8.590;2024-01-27T07:45:29;94.07;;;7.70;;
10303;SDS011;5197;48.152;8.590;2024-01-27T07:47:56;42.73;;;6.27;;
10303;SDS011;5197;48.152;8.590;2024-01-27T07:50:27;31.00;;;5.90;;
10303;SDS011;5197;48.152;8.590;2024-01-27T07:52:54;25.87;;;6.77;;
10303;SDS011;5197;48.152;8.590;2024-01-27T07:55:21;50.07;;;7.33;;
10303;SDS011;5197;48.152;8.590;2024-01-27T07:57:48;40.03;;;6.53;;
10303;SDS011;5197;48.152;8.590;2024-01-27T08:00:15;42.20;;;6.93;;
10303;SDS011;5197;48.152;8.590;2024-01-27T08:02:43;36.73;;;6.20;;
10303;SDS011;5197;48.152;8.590;2024-01-27T08:05:10;65.77;;;7.43;;
10303;SDS011;5197;48.152;8.590;2024-01-27T08:07:37;66.37;;;8.07;;
10303;SDS011;5197;48.152;8.590;2024-01-27T08:10:04;63.93;;;7.30;;
10303;SDS011;5197;48.152;8.590;2024-01-27T08:12:32;52.20;;;6.57;;
10303;SDS011;5197;48.152;8.590;2024-01-27T08:14:59;138.70;;;10.97;;
10303;SDS011;5197;48.152;8.590;2024-01-27T08:17:27;121.90;;;8.27;;
10303;SDS011;5197;48.152;8.590;2024-01-27T08:19:54;89.50;;;9.27;;
10303;SDS011;5197;48.152;8.590;2024-01-27T08:22:21;65.40;;;8.20;;
10303;SDS011;5197;48.152;8.590;2024-01-27T08:24:48;59.47;;;8.10;;
10303;SDS011;5197;48.152;8.590;2024-01-27T08:27:15;76.20;;;12.63;;
10303;SDS011;5197;48.152;8.590;2024-01-27T08:29:42;42.40;;;7.90;;
10303;SDS011;5197;48.152;8.590;2024-01-27T08:32:09;61.70;;;13.20;;
10303;SDS011;5197;48.152;8.590;2024-01-27T08:34:37;41.10;;;12.17;;
10303;SDS011;5197;48.152;8.590;2024-01-27T08:37:13;52.80;;;7.80;;
10303;SDS011;5197;48.152;8.590;2024-01-27T08:39:42;95.73;;;11.27;;
10303;SDS011;5197;48.152;8.590;2024-01-27T08:42:10;89.27;;;10.37;;
10303;SDS011;5197;48.152;8.590;2024-01-27T08:44:37;152.27;;;11.23;;
10303;SDS011;5197;48.152;8.590;2024-01-27T08:47:05;55.63;;;6.77;;
10303;SDS011;5197;48.152;8.590;2024-01-27T08:49:34;63.53;;;9.33;;
10303;SDS011;5197;48.152;8.590;2024-01-27T08:52:01;67.30;;;9.37;;
10303;SDS011;5197;48.152;8.590;2024-01-27T08:54:28;59.27;;;8.70;;
10303;SDS011;5197;48.152;8.590;2024-01-27T08:56:55;133.37;;;14.93;;
10303;SDS011;5197;48.152;8.590;2024-01-27T08:59:22;80.90;;;16.20;;
10303;SDS011;5197;48.152;8.590;2024-01-27T09:01:49;62.13;;;11.70;;
10303;SDS011;5197;48.152;8.590;2024-01-27T09:04:17;68.47;;;11.13;;
10303;SDS011;5197;48.152;8.590;2024-01-27T09:06:44;79.63;;;11.07;;
10303;SDS011;5197;48.152;8.590;2024-01-27T09:09:11;59.40;;;9.03;;
10303;SDS011;5197;48.152;8.590;2024-01-27T09:11:39;74.80;;;10.83;;
10303;SDS011;5197;48.152;8.590;2024-01-27T09:14:06;51.00;;;9.23;;
10303;SDS011;5197;48.152;8.590;2024-01-27T09:16:34;47.17;;;7.87;;
10303;SDS011;5197;48.152;8.590;2024-01-27T09:19:01;87.80;;;8.87;;
10303;SDS011;5197;48.152;8.590;2024-01-27T09:21:29;91.83;;;8.70;;
10303;SDS011;5197;48.152;8.590;2024-01-27T09:23:57;49.40;;;7.63;;
10303;SDS011;5197;48.152;8.590;2024-01-27T09:26:25;89.83;;;7.77;;
10303;SDS011;5197;48.152;8.590;2024-01-27T09:28:52;135.87;;;7.27;;
10303;SDS011;5197;48.152;8.590;2024-01-27T09:31:25;122.70;;;7.00;;
10303;SDS011;5197;48.152;8.590;2024-01-27T09:33:53;195.13;;;9.97;;
10303;SDS011;5197;48.152;8.590;2024-01-27T09:36:21;67.03;;;6.73;;
10303;SDS011;5197;48.152;8.590;2024-01-27T09:38:48;137.17;;;8.23;;
10303;SDS011;5197;48.152;8.590;2024-01-27T09:41:17;114.73;;;6.97;;
10303;SDS011;5197;48.152;8.590;2024-01-27T09:43:45;93.77;;;6.57;;
10303;SDS011;5197;48.152;8.590;2024-01-27T09:46:13;84.47;;;6.33;;
10303;SDS011;5197;48.152;8.590;2024-01-27T09:48:42;93.83;;;6.33;;
10303;SDS011;5197;48.152;8.590;2024-01-27T09:51:10;66.70;;;5.87;;
10303;SDS011;5197;48.152;8.590;2024-01-27T09:53:37;92.00;;;7.20;;
10303;SDS011;5197;48.152;8.590;2024-01-27T09:56:04;103.87;;;7.13;;
10303;SDS011;5197;48.152;8.590;2024-01-27T09:58:33;71.13;;;6.03;;
10303;SDS011;5197;48.152;8.590;2024-01-27T10:01:01;74.27;;;7.67;;
10303;SDS011;5197;48.152;8.590;2024-01-27T10:03:29;76.40;;;7.30;;
10303;SDS011;5197;48.152;8.590;2024-01-27T10:05:57;96.93;;;6.73;;
10303;SDS011;5197;48.152;8.590;2024-01-27T10:08:27;135.50;;;8.50;;
10303;SDS011;5197;48.152;8.590;2024-01-27T10:10:56;49.97;;;5.97;;
10303;SDS011;5197;48.152;8.590;2024-01-27T10:13:24;46.07;;;6.73;;
10303;SDS011;5197;48.152;8.590;2024-01-27T10:18:31;123.00;;;7.90;;
10303;SDS011;5197;48.152;8.590;2024-01-27T10:21:00;120.93;;;7.83;;
10303;SDS011;5197;48.152;8.590;2024-01-27T10:23:38;53.57;;;5.50;;
10303;SDS011;5197;48.152;8.590;2024-01-27T10:26:10;103.47;;;6.67;;
10303;SDS011;5197;48.152;8.590;2024-01-27T10:28:37;92.97;;;5.60;;
10303;SDS011;5197;48.152;8.590;2024-01-27T10:31:11;65.47;;;5.27;;
10303;SDS011;5197;48.152;8.590;2024-01-27T10:33:39;50.33;;;4.70;;
10303;SDS011;5197;48.152;8.590;2024-01-27T10:36:07;58.60;;;4.87;;
10303;SDS011;5197;48.152;8.590;2024-01-27T10:38:37;20.97;;;4.23;;
10303;SDS011;5197;48.152;8.590;2024-01-27T10:41:08;19.33;;;4.67;;
10303;SDS011;5197;48.152;8.590;2024-01-27T10:43:39;8.80;;;4.63;;
10303;SDS011;5197;48.152;8.590;2024-01-27T10:46:07;11.43;;;4.40;;
10303;SDS011;5197;48.152;8.590;2024-01-27T10:48:34;19.27;;;4.37;;
10303;SDS011;5197;48.152;8.590;2024-01-27T10:51:05;9.50;;;5.00;;
10303;SDS011;5197;48.152;8.590;2024-01-27T10:53:35;10.23;;;5.30;;
10303;SDS011;5197;48.152;8.590;2024-01-27T10:56:04;12.47;;;4.67;;
10303;SDS011;5197;48.152;8.590;2024-01-27T10:58:36;5.97;;;5.20;;
10303;SDS011;5197;48.152;8.590;2024-01-27T11:01:11;10.53;;;6.80;;
10303;SDS011;5197;48.152;8.590;2024-01-27T11:03:39;5.60;;;5.00;;
10303;SDS011;5197;48.152;8.590;2024-01-27T11:06:07;7.50;;;5.77;;
10303;SDS011;5197;48.152;8.590;2024-01-27T11:08:35;7.53;;;6.10;;
10303;SDS011;5197;48.152;8.590;2024-01-27T11:11:09;13.67;;;6.70;;
10303;SDS011;5197;48.152;8.590;2024-01-27T11:13:36;5.80;;;5.20;;
10303;SDS011;5197;48.152;8.590;2024-01-27T11:16:05;6.27;;;5.23;;
10303;SDS011;5197;48.152;8.590;2024-01-27T11:18:41;8.20;;;6.90;;
10303;SDS011;5197;48.152;8.590;2024-01-27T11:21:16;7.27;;;6.30;;
10303;SDS011;5197;48.152;8.590;2024-01-27T11:23:44;10.30;;;6.47;;
10303;SDS011;5197;48.152;8.590;2024-01-27T11:26:21;8.27;;;5.90;;
10303;SDS011;5197;48.152;8.590;2024-01-27T11:28:49;6.27;;;5.60;;
10303;SDS011;5197;48.152;8.590;2024-01-27T11:31:17;6.60;;;5.90;;
10303;SDS011;5197;48.152;8.590;2024-01-27T11:33:50;9.10;;;6.07;;
10303;SDS011;5197;48.152;8.590;2024-01-27T11:36:22;8.07;;;6.70;;
10303;SDS011;5197;48.152;8.590;2024-01-27T11:38:51;8.13;;;6.30;;
10303;SDS011;5197;48.152;8.590;2024-01-27T11:43:56;8.63;;;5.90;;
10303;SDS011;5197;48.152;8.590;2024-01-27T11:46:26;6.10;;;5.27;;
10303;SDS011;5197;48.152;8.590;2024-01-27T11:48:53;6.87;;;6.10;;
10303;SDS011;5197;48.152;8.590;2024-01-27T11:51:20;6.67;;;5.40;;
10303;SDS011;5197;48.152;8.590;2024-01-27T11:53:50;9.70;;;5.00;;
10303;SDS011;5197;48.152;8.590;2024-01-27T11:56:17;6.20;;;5.30;;
10303;SDS011;5197;48.152;8.590;2024-01-27T11:58:48;9.10;;;4.77;;
10303;SDS011;5197;48.152;8.590;2024-01-27T12:01:17;7.00;;;5.30;;
10303;SDS011;5197;48.152;8.590;2024-01-27T12:03:45;7.47;;;5.43;;
10303;SDS011;5197;48.152;8.590;2024-01-27T12:06:13;6.97;;;5.80;;
10303;SDS011;5197;48.152;8.590;2024-01-27T12:08:41;8.07;;;5.93;;
10303;SDS011;5197;48.152;8.590;2024-01-27T12:11:15;8.03;;;5.77;;
10303;SDS011;5197;48.152;8.590;2024-01-27T12:13:48;9.27;;;5.63;;
10303;SDS011;5197;48.152;8.590;2024-01-27T12:16:15;6.70;;;5.70;;
10303;SDS011;5197;48.152;8.590;2024-01-27T12:18:46;7.23;;;5.57;;
10303;SDS011;5197;48.152;8.590;2024-01-27T12:21:18;10.83;;;4.77;;
10303;SDS011;5197;48.152;8.590;2024-01-27T12:23:52;7.63;;;4.20;;
10303;SDS011;5197;48.152;8.590;2024-01-27T12:26:28;8.57;;;4.20;;
10303;SDS011;5197;48.152;8.590;2024-01-27T12:28:56;8.23;;;4.23;;
10303;SDS011;5197;48.152;8.590;2024-01-27T12:31:27;5.87;;;3.77;;
10303;SDS011;5197;48.152;8.590;2024-01-27T12:33:55;7.03;;;3.33;;
10303;SDS011;5197;48.152;8.590;2024-01-27T12:36:26;4.37;;;3.03;;
10303;SDS011;5197;48.152;8.590;2024-01-27T12:38:54;4.07;;;3.40;;
10303;SDS011;5197;48.152;8.590;2024-01-27T12:41:21;5.33;;;3.03;;
10303;SDS011;5197;48.152;8.590;2024-01-27T12:43:48;6.57;;;3.17;;
10303;SDS011;5197;48.152;8.590;2024-01-27T12:46:16;2.97;;;2.60;;
10303;SDS011;5197;48.152;8.590;2024-01-27T12:48:44;5.50;;;2.80;;
10303;SDS011;5197;48.152;8.590;2024-01-27T12:51:12;4.40;;;2.67;;
10303;SDS011;5197;48.152;8.590;2024-01-27T12:53:40;4.90;;;3.23;;
10303;SDS011;5197;48.152;8.590;2024-01-27T12:56:10;4.07;;;3.67;;
10303;SDS011;5197;48.152;8.590;2024-01-27T12:58:38;3.83;;;3.43;;
10303;SDS011;5197;48.152;8.590;2024-01-27T13:01:07;4.50;;;3.47;;
10303;SDS011;5197;48.152;8.590;2024-01-27T13:03:34;4.97;;;4.53;;
10303;SDS011;5197;48.152;8.590;2024-01-27T13:06:02;5.60;;;4.70;;
10303;SDS011;5197;48.152;8.590;2024-01-27T13:08:30;5.17;;;4.67;;
10303;SDS011;5197;48.152;8.590;2024-01-27T13:10:57;4.83;;;4.37;;
10303;SDS011;5197;48.152;8.590;2024-01-27T13:13:25;7.03;;;4.50;;
10303;SDS011;5197;48.152;8.590;2024-01-27T13:15:52;5.50;;;4.47;;
10303;SDS011;5197;48.152;8.590;2024-01-27T13:18:20;4.90;;;4.10;;
10303;SDS011;5197;48.152;8.590;2024-01-27T13:20:47;4.87;;;3.83;;
10303;SDS011;5197;48.152;8.590;2024-01-27T13:23:14;4.63;;;3.73;;
10303;SDS011;5197;48.152;8.590;2024-01-27T13:25:41;6.63;;;3.70;;
10303;SDS011;5197;48.152;8.590;2024-01-27T13:28:23;5.23;;;3.53;;
10303;SDS011;5197;48.152;8.590;2024-01-27T13:30:50;5.03;;;3.33;;
10303;SDS011;5197;48.152;8.590;2024-01-27T13:33:17;4.30;;;3.37;;
10303;SDS011;5197;48.152;8.590;2024-01-27T13:35:44;4.47;;;3.00;;
10303;SDS011;5197;48.152;8.590;2024-01-27T13:38:13;3.77;;;2.80;;
10303;SDS011;5197;48.152;8.590;2024-01-27T13:40:42;4.77;;;3.10;;
10303;SDS011;5197;48.152;8.590;2024-01-27T13:43:09;4.37;;;2.80;;
10303;SDS011;5197;48.152;8.590;2024-01-27T13:45:35;12.53;;;3.20;;
10303;SDS011;5197;48.152;8.590;2024-01-27T13:48:03;4.47;;;2.80;;
10303;SDS011;5197;48.152;8.590;2024-01-27T13:50:30;3.47;;;2.87;;
10303;SDS011;5197;48.152;8.590;2024-01-27T13:52:58;6.00;;;2.80;;
10303;SDS011;5197;48.152;8.590;2024-01-27T13:55:25;3.93;;;2.47;;
10303;SDS011;5197;48.152;8.590;2024-01-27T13:57:53;2.83;;;2.30;;
10303;SDS011;5197;48.152;8.590;2024-01-27T14:00:20;6.93;;;2.90;;
10303;SDS011;5197;48.152;8.590;2024-01-27T14:02:48;9.77;;;3.13;;
10303;SDS011;5197;48.152;8.590;2024-01-27T14:05:15;3.23;;;2.63;;
10303;SDS011;5197;48.152;8.590;2024-01-27T14:07:42;2.37;;;2.13;;
10303;SDS011;5197;48.152;8.590;2024-01-27T14:10:09;4.53;;;2.60;;
10303;SDS011;5197;48.152;8.590;2024-01-27T14:12:36;2.43;;;2.23;;
10303;SDS011;5197;48.152;8.590;2024-01-27T14:15:03;6.73;;;3.23;;
10303;SDS011;5197;48.152;8.590;2024-01-27T14:17:35;3.30;;;3.00;;
10303;SDS011;5197;48.152;8.590;2024-01-27T14:20:03;3.10;;;2.80;;
10303;SDS011;5197;48.152;8.590;2024-01-27T14:22:31;3.93;;;2.90;;
10303;SDS011;5197;48.152;8.590;2024-01-27T14:24:58;5.73;;;3.27;;
10303;SDS011;5197;48.152;8.590;2024-01-27T14:27:25;3.73;;;2.90;;
10303;SDS011;5197;48.152;8.590;2024-01-27T14:29:53;4.00;;;3.17;;
10303;SDS011;5197;48.152;8.590;2024-01-27T14:32:21;3.23;;;3.03;;
10303;SDS011;5197;48.152;8.590;2024-01-27T14:34:48;3.90;;;3.20;;
10303;SDS011;5197;48.152;8.590;2024-01-27T14:37:16;2.77;;;2.57;;
10303;SDS011;5197;48.152;8.590;2024-01-27T14:39:43;5.57;;;3.40;;
10303;SDS011;5197;48.152;8.590;2024-01-27T14:42:12;4.20;;;3.80;;
10303;SDS011;5197;48.152;8.590;2024-01-27T14:44:40;3.70;;;3.27;;
10303;SDS011;5197;48.152;8.590;2024-01-27T14:47:08;4.20;;;3.80;;
10303;SDS011;5197;48.152;8.590;2024-01-27T14:49:37;4.30;;;3.90;;
10303;SDS011;5197;48.152;8.590;2024-01-27T14:52:05;4.90;;;4.07;;
10303;SDS011;5197;48.152;8.590;2024-01-27T14:54:33;6.43;;;3.97;;
10303;SDS011;5197;48.152;8.590;2024-01-27T14:57:04;7.17;;;4.30;;
10303;SDS011;5197;48.152;8.590;2024-01-27T14:59:31;4.23;;;3.83;;
10303;SDS011;5197;48.152;8.590;2024-01-27T15:01:59;5.70;;;3.70;;